Time;durP1;ratioP1;P1;durP2;ratioP2;P2;SDS_P1;SDS_P2;PMS_P1;PMS_P2;Temp;Humidity;BMP_temperature;BMP_pressure;BME280_temperature;BME280_humidity;BME280_pressure;Samples;Min_cycle;Max_cycle;Signal;HPM_P1;HPM_P2
2023/11/10 08:16:30;;;;;;;0.28;0.28;;;;;;;16.34;100.00;99623.41;4994302;23;20066;-84
2023/11/10 08:18:56;;;;;;;0.20;0.20;;;;;;;16.17;100.00;99611.94;4938469;29;20510;-88
2023/11/10 08:21:22;;;;;;;0.20;0.20;;;;;;;17.08;100.00;99615.41;4920674;28;20039;-88
2023/11/10 08:23:47;;;;;;;0.20;0.20;;;;;;;16.66;100.00;99609.84;4934120;29;20399;-88
2023/11/10 08:26:13;;;;;;;0.20;0.20;;;;;;;17.24;100.00;99607.94;4952156;29;20122;-88
2023/11/10 08:28:39;;;;;;;0.20;0.20;;;;;;;17.03;100.00;99622.28;4951855;29;20079;-88
2023/11/10 08:31:04;;;;;;;0.20;0.20;;;;;;;17.44;100.00;99615.72;4941112;29;20161;-88
2023/11/10 08:33:30;;;;;;;0.20;0.20;;;;;;;16.90;100.00;99621.25;4934400;29;20034;-87
2023/11/10 08:39:03;;;;;;;0.20;0.20;;;;;;;16.33;100.00;99613.41;4934179;29;20046;-89
2023/11/10 08:41:28;;;;;;;0.20;0.20;;;;;;;16.24;100.00;99620.31;4918929;29;20484;-88
2023/11/10 08:43:54;;;;;;;0.20;0.20;;;;;;;15.94;100.00;99609.72;4917069;29;20032;-88
2023/11/10 08:46:19;;;;;;;0.20;0.20;;;;;;;15.74;100.00;99619.91;4917020;29;20032;-88
2023/11/10 08:48:45;;;;;;;0.20;0.20;;;;;;;15.57;100.00;99615.97;4916909;29;20404;-88
2023/11/10 08:51:10;;;;;;;0.20;0.20;;;;;;;15.53;100.00;99632.03;4932870;29;20032;-88
2023/11/10 08:53:37;;;;;;;0.20;0.20;;;;;;;15.60;100.00;99612.34;4934097;29;20032;-88
2023/11/10 08:56:03;;;;;;;0.20;0.20;;;;;;;15.46;100.00;99618.84;4932616;29;20052;-88
2023/11/10 08:58:28;;;;;;;0.20;0.20;;;;;;;15.39;100.00;99612.47;4916741;29;20046;-88
2023/11/10 09:00:53;;;;;;;0.20;0.20;;;;;;;15.19;100.00;99589.78;4916535;29;20032;-88
2023/11/10 09:03:19;;;;;;;0.20;0.20;;;;;;;15.11;100.00;99605.81;4916680;29;20031;-87
2023/11/10 09:05:44;;;;;;;0.20;0.20;;;;;;;15.27;100.00;99624.16;4916363;29;20167;-88
2023/11/10 09:08:09;;;;;;;0.20;0.20;;;;;;;15.10;100.00;99604.22;4916520;29;20090;-88
2023/11/10 09:10:35;;;;;;;0.20;0.20;;;;;;;15.45;100.00;99641.69;4916399;29;20199;-88
2023/11/10 09:13:01;;;;;;;0.20;0.20;;;;;;;16.03;100.00;99630.88;4916371;29;20028;-88
2023/11/10 09:15:26;;;;;;;0.20;0.20;;;;;;;16.69;100.00;99647.53;4914479;29;20420;-88
2023/11/10 09:17:52;;;;;;;0.20;0.20;;;;;;;17.03;100.00;99633.53;4898402;29;20079;-87
2023/11/10 09:20:18;;;;;;;0.20;0.20;;;;;;;16.87;100.00;99633.31;4897151;29;20075;-88
2023/11/10 09:22:43;;;;;;;0.20;0.20;;;;;;;16.65;100.00;99624.31;4897167;29;20124;-87
2023/11/10 09:25:15;;;;;;;0.20;0.20;;;;;;;16.60;100.00;99625.56;4897097;29;20031;-87
2023/11/10 09:27:42;;;;;;;0.20;0.20;;;;;;;16.82;100.00;99619.72;4897850;29;20484;-87
2023/11/10 09:30:27;;;;;;;0.20;0.20;;;;;;;17.26;100.00;99630.03;4903655;29;20032;-85
2023/11/10 09:32:53;;;;;;;0.20;0.20;;;;;;;17.26;100.00;99633.66;4901061;29;20084;-88
2023/11/10 09:35:26;;;;;;;0.20;0.20;;;;;;;17.49;100.00;99635.75;4925296;29;20038;-83
2023/11/10 09:37:52;;;;;;;0.20;0.20;;;;;;;17.11;100.00;99594.91;4921156;29;20392;-86
2023/11/10 09:49:33;;;;;;;0.20;0.20;;;;;;;18.07;100.00;99613.19;4919113;29;20079;-88
2023/11/10 09:52:01;;;;;;;0.20;0.20;;;;;;;17.91;100.00;99605.41;4900684;29;20063;-87
2023/11/10 09:54:27;;;;;;;0.20;0.20;;;;;;;17.52;100.00;99597.53;4918019;29;20042;-88
2023/11/10 09:56:55;;;;;;;0.20;0.20;;;;;;;17.57;100.00;99613.13;4916799;29;20063;-87
2023/11/10 09:59:27;;;;;;;0.20;0.20;;;;;;;17.53;100.00;99613.19;4917617;29;20024;-87
2023/11/10 10:01:52;;;;;;;0.20;0.20;;;;;;;17.56;100.00;99584.22;4882991;29;20024;-88
2023/11/10 10:04:18;;;;;;;0.20;0.20;;;;;;;17.52;100.00;99600.34;4898025;29;20033;-88
2023/11/10 10:06:52;;;;;;;0.20;0.20;;;;;;;17.61;100.00;99606.22;4882641;29;20028;-88
2023/11/10 10:09:18;;;;;;;0.20;0.20;;;;;;;18.07;100.00;99587.84;4882181;29;20441;-88
2023/11/10 10:11:44;;;;;;;0.20;0.20;;;;;;;17.78;100.00;99579.06;4897554;29;20024;-88
2023/11/10 10:14:12;;;;;;;0.20;0.20;;;;;;;17.91;100.00;99587.72;4882041;29;20040;-87
2023/11/10 10:16:38;;;;;;;0.20;0.20;;;;;;;17.96;100.00;99573.97;4899595;29;20123;-87
2023/11/10 10:19:04;;;;;;;0.20;0.20;;;;;;;17.65;100.00;99558.38;4897664;29;20029;-87
2023/11/10 10:21:40;;;;;;;0.20;0.20;;;;;;;17.96;100.00;99598.50;4897322;29;20035;-84
2023/11/10 10:24:06;;;;;;;0.28;0.28;;;;;;;17.96;100.00;99599.28;4881908;29;20020;-84
2023/11/10 10:26:33;;;;;;;0.20;0.20;;;;;;;17.88;100.00;99586.56;4900759;29;20021;-87
2023/11/10 10:29:00;;;;;;;0.20;0.20;;;;;;;18.15;100.00;99596.97;4900507;29;20337;-85
2023/11/10 10:31:27;;;;;;;0.20;0.20;;;;;;;18.02;100.00;99571.47;4917328;29;20032;-84
2023/11/10 10:33:53;;;;;;;0.20;0.20;;;;;;;17.82;100.00;99573.41;4900878;29;20477;-85
2023/11/10 10:36:19;;;;;;;0.20;0.20;;;;;;;18.09;100.00;99571.31;4900946;29;20035;-85
2023/11/10 10:38:49;;;;;;;0.20;0.20;;;;;;;18.25;100.00;99584.72;4917090;29;20036;-85
2023/11/10 10:41:17;;;;;;;0.20;0.20;;;;;;;18.06;100.00;99569.38;4917248;29;20036;-85
2023/11/10 10:43:43;;;;;;;0.20;0.20;;;;;;;18.38;100.00;99565.19;4917126;29;20060;-84
2023/11/10 10:46:10;;;;;;;0.20;0.20;;;;;;;18.26;99.62;99578.66;4899336;29;20036;-85
2023/11/10 10:48:37;;;;;;;0.20;0.20;;;;;;;18.52;97.17;99570.53;4916690;29;20056;-85
2023/11/10 10:51:03;;;;;;;0.20;0.20;;;;;;;18.59;96.51;99570.41;4899694;29;20032;-84
2023/11/10 10:53:29;;;;;;;0.20;0.20;;;;;;;18.48;95.10;99570.63;4899873;29;20153;-84
2023/11/10 10:55:55;;;;;;;0.20;0.20;;;;;;;18.43;97.11;99539.31;4899787;29;20060;-85
2023/11/10 10:58:22;;;;;;;0.20;0.20;;;;;;;18.59;93.94;99567.59;4899607;29;20059;-85
2023/11/10 11:00:48;;;;;;;0.20;0.20;;;;;;;18.70;94.98;99568.22;4899648;29;20507;-85
2023/11/10 11:03:41;;;;;;;0.20;0.20;;;;;;;18.68;90.12;99556.56;4899909;29;20131;-86
2023/11/10 11:06:35;;;;;;;0.20;0.20;;;;;;;18.44;87.53;99553.00;4916994;29;20024;-87
2023/11/10 11:09:38;;;;;;;0.20;0.20;;;;;;;18.22;88.13;99544.16;4863278;29;20128;-87
2023/11/10 11:12:22;;;;;;;0.20;0.20;;;;;;;17.96;87.09;99545.03;4863621;29;20133;-88
2023/11/10 11:15:00;;;;;;;0.20;0.20;;;;;;;17.78;88.52;99540.47;4862539;29;20056;-86
2023/11/10 11:17:44;;;;;;;0.30;0.30;;;;;;;17.78;89.37;99534.06;4862422;29;20037;-87
2023/11/10 11:20:12;;;;;;;0.20;0.20;;;;;;;17.46;90.91;99509.22;4862123;29;20033;-87
2023/11/10 11:22:38;;;;;;;0.20;0.20;;;;;;;17.67;91.83;99519.34;4861985;29;20036;-86
2023/11/10 11:25:08;;;;;;;0.20;0.20;;;;;;;17.45;91.29;99493.59;4862175;29;20033;-87
2023/11/10 11:27:34;;;;;;;0.20;0.20;;;;;;;17.55;91.11;99515.13;4862013;29;20029;-86
2023/11/10 11:30:07;;;;;;;0.20;0.20;;;;;;;17.48;92.36;99509.63;4869075;29;20028;-86
2023/11/10 11:32:33;;;;;;;0.20;0.20;;;;;;;17.23;90.84;99488.28;4916316;29;20032;-86
2023/11/10 11:35:00;;;;;;;0.20;0.20;;;;;;;17.13;91.05;99489.25;4899549;29;20020;-86
2023/11/10 11:37:43;;;;;;;0.20;0.20;;;;;;;16.99;97.33;99507.13;4902333;29;20586;-84
2023/11/10 11:40:10;;;;;;;0.20;0.20;;;;;;;16.99;99.87;99492.25;4898898;29;20048;-86
2023/11/10 11:42:39;;;;;;;0.20;0.20;;;;;;;17.12;100.00;99479.22;4899044;29;20457;-88
2023/11/10 11:45:25;;;;;;;0.20;0.20;;;;;;;17.40;100.00;99474.38;4900287;29;20066;-83
2023/11/10 11:47:51;;;;;;;0.20;0.20;;;;;;;17.60;100.00;99477.28;4917592;29;20056;-86
2023/11/10 11:50:17;;;;;;;0.20;0.20;;;;;;;17.83;100.00;99470.88;4916366;29;20083;-85
2023/11/10 11:52:45;;;;;;;0.20;0.20;;;;;;;17.65;100.00;99457.09;4899734;29;20032;-87
2023/11/10 11:55:10;;;;;;;0.20;0.20;;;;;;;17.93;98.79;99467.06;4899724;29;20528;-86
2023/11/10 11:57:37;;;;;;;0.20;0.20;;;;;;;17.81;97.09;99462.88;4900610;29;20124;-87
2023/11/10 12:03:27;;;;;;;0.20;0.20;;;;;;;17.85;96.87;99476.88;4918900;29;20135;-88
2023/11/10 12:05:53;;;;;;;0.20;0.20;;;;;;;17.52;100.00;99471.78;4885396;29;20445;-87
2023/11/10 12:08:19;;;;;;;0.20;0.20;;;;;;;17.14;100.00;99445.06;4898790;29;20087;-86
2023/11/10 12:10:45;;;;;;;0.20;0.20;;;;;;;17.10;100.00;99439.53;4898757;29;20032;-86
2023/11/10 12:13:14;;;;;;;0.20;0.20;;;;;;;17.22;100.00;99450.16;4898382;29;20067;-86
2023/11/10 12:15:41;;;;;;;0.20;0.20;;;;;;;17.16;100.00;99453.88;4898511;29;20108;-86
2023/11/10 12:18:08;;;;;;;0.20;0.20;;;;;;;17.23;100.00;99460.19;4898461;29;20024;-86
2023/11/10 12:20:33;;;;;;;0.20;0.20;;;;;;;16.98;100.00;99459.75;4915184;29;20024;-87
2023/11/10 12:31:33;;;;;;;0.20;0.20;;;;;;;16.19;100.00;99438.31;5344952;23;20059;-82
2023/11/10 12:50:39;;;;;;;0.20;0.20;;;;;;;17.10;100.00;99441.50;4952777;23;20060;-85
2023/11/10 12:53:18;;;;;;;0.20;0.20;;;;;;;17.19;100.00;99442.56;4899072;29;20070;-85
2023/11/10 12:55:47;;;;;;;0.20;0.20;;;;;;;17.06;100.00;99433.16;4915277;29;20042;-84
2023/11/10 13:02:35;;;;;;;0.20;0.20;;;;;;;17.13;100.00;99433.03;4931002;29;20066;-82
2023/11/10 13:08:43;;;;;;;0.28;0.28;;;;;;;17.34;100.00;99436.72;4835809;29;20533;-86
2023/11/10 13:11:17;;;;;;;0.20;0.20;;;;;;;17.15;100.00;99429.78;4897862;29;20059;-83
2023/11/10 13:17:06;;;;;;;0.20;0.20;;;;;;;17.20;100.00;99404.81;4916662;29;20115;-84
2023/11/10 13:19:36;;;;;;;0.20;0.20;;;;;;;17.08;100.00;99382.94;4910192;29;20031;-84
2023/11/10 13:22:01;;;;;;;0.20;0.20;;;;;;;17.36;100.00;99431.47;4898165;29;20055;-86
2023/11/10 13:24:27;;;;;;;0.20;0.20;;;;;;;17.24;100.00;99433.66;4897976;29;20469;-87
2023/11/10 13:26:53;;;;;;;0.20;0.20;;;;;;;17.37;100.00;99425.44;4897700;29;20418;-87
2023/11/10 13:29:18;;;;;;;0.20;0.20;;;;;;;17.46;100.00;99442.53;4898537;29;20028;-87
2023/11/10 13:31:43;;;;;;;0.20;0.20;;;;;;;17.57;100.00;99450.00;4897436;29;20032;-87
2023/11/10 13:34:14;;;;;;;0.20;0.20;;;;;;;17.39;99.41;99433.44;4897560;29;20115;-87
2023/11/10 13:36:41;;;;;;;0.20;0.20;;;;;;;17.21;95.16;99433.72;4914616;29;20384;-87
2023/11/10 13:39:06;;;;;;;0.20;0.20;;;;;;;17.33;94.07;99454.81;4897864;29;20020;-87
2023/11/10 13:41:31;;;;;;;0.20;0.20;;;;;;;17.45;91.26;99466.25;4897965;29;20489;-86
2023/11/10 13:43:57;;;;;;;0.20;0.20;;;;;;;17.37;89.97;99453.56;4897767;29;20032;-87
2023/11/10 13:46:23;;;;;;;0.20;0.20;;;;;;;17.45;87.98;99463.44;4897447;29;20036;-86
2023/11/10 13:48:50;;;;;;;0.20;0.20;;;;;;;17.43;87.93;99446.22;4897243;29;20056;-87
2023/11/10 13:51:16;;;;;;;0.20;0.20;;;;;;;17.53;88.08;99455.69;4897376;29;20131;-86
2023/11/10 13:53:41;;;;;;;0.20;0.20;;;;;;;17.63;87.52;99465.97;4898633;29;20196;-86
2023/11/10 13:56:07;;;;;;;0.20;0.20;;;;;;;17.71;87.27;99478.69;4897298;29;20094;-85
2023/11/10 13:58:33;;;;;;;0.20;0.20;;;;;;;17.54;87.78;99466.50;4897227;29;20024;-86
2023/11/10 14:00:59;;;;;;;0.20;0.20;;;;;;;17.37;87.81;99453.56;4914093;29;20039;-86
2023/11/10 14:03:24;;;;;;;0.20;0.20;;;;;;;17.52;85.81;99479.41;4897276;29;20024;-86
2023/11/10 14:05:51;;;;;;;0.20;0.20;;;;;;;17.48;85.15;99473.84;4897133;29;20035;-86
2023/11/10 14:08:17;;;;;;;0.20;0.20;;;;;;;17.34;86.45;99481.72;4897265;29;20487;-86
2023/11/10 14:10:43;;;;;;;0.20;0.20;;;;;;;17.27;84.92;99488.25;4897122;29;20140;-86
2023/11/10 14:13:08;;;;;;;0.20;0.20;;;;;;;17.25;85.28;99477.41;4897088;29;20024;-85
2023/11/10 14:15:34;;;;;;;0.20;0.20;;;;;;;17.16;87.22;99479.19;4897219;29;20164;-85
2023/11/10 14:17:59;;;;;;;0.20;0.20;;;;;;;17.22;87.55;99500.75;4896998;29;20024;-85
2023/11/10 14:20:25;;;;;;;0.20;0.20;;;;;;;17.06;90.48;99474.53;4897775;29;20035;-85
2023/11/10 14:22:50;;;;;;;0.20;0.20;;;;;;;17.06;93.42;99483.75;4900622;29;20191;-86
2023/11/10 14:25:16;;;;;;;0.20;0.20;;;;;;;17.02;93.86;99494.22;4917581;29;20032;-86
2023/11/10 14:27:41;;;;;;;0.20;0.20;;;;;;;17.00;99.28;99503.09;4900675;29;20038;-85
2023/11/10 14:30:07;;;;;;;0.20;0.20;;;;;;;16.82;99.39;99487.69;4898625;29;20035;-86
2023/11/10 14:32:33;;;;;;;0.20;0.20;;;;;;;16.73;97.92;99483.41;4900603;29;20028;-86
2023/11/10 14:34:58;;;;;;;0.20;0.20;;;;;;;16.86;93.18;99485.63;4900233;29;20270;-86
2023/11/10 14:37:27;;;;;;;0.20;0.20;;;;;;;17.02;95.98;99499.84;4917117;29;20024;-86
2023/11/10 14:39:54;;;;;;;0.20;0.20;;;;;;;16.81;97.37;99480.47;4916037;29;20207;-86
2023/11/10 14:42:20;;;;;;;0.20;0.20;;;;;;;16.62;89.96;99459.41;4900128;29;20043;-86
2023/11/10 14:44:46;;;;;;;0.20;0.20;;;;;;;16.59;92.20;99461.06;4917190;29;20016;-86
2023/11/10 14:47:14;;;;;;;0.20;0.20;;;;;;;16.59;93.71;99461.06;4915976;29;20147;-86
2023/11/10 14:49:44;;;;;;;0.20;0.20;;;;;;;16.65;94.39;99462.19;4916845;29;20436;-87
2023/11/10 14:52:14;;;;;;;0.20;0.20;;;;;;;16.51;95.03;99462.38;4900029;29;20637;-87
2023/11/10 14:54:44;;;;;;;0.30;0.30;;;;;;;16.53;97.08;99484.44;4915845;29;20028;-86
2023/11/10 14:57:10;;;;;;;0.20;0.20;;;;;;;16.46;97.42;99471.28;4915551;29;20488;-86
2023/11/10 14:59:36;;;;;;;0.20;0.20;;;;;;;16.45;98.45;99470.47;4899597;29;20369;-86
2023/11/10 15:02:01;;;;;;;0.20;0.20;;;;;;;16.29;100.00;99458.25;4916189;29;20103;-86
2023/11/10 15:04:28;;;;;;;0.22;0.22;;;;;;;16.18;100.00;99447.94;4899720;29;20448;-86
2023/11/10 15:06:53;;;;;;;0.20;0.20;;;;;;;16.11;100.00;99448.03;4915359;29;20468;-86
2023/11/10 15:09:20;;;;;;;0.20;0.20;;;;;;;16.19;100.00;99455.16;4899812;29;20052;-86
2023/11/10 15:11:46;;;;;;;0.20;0.20;;;;;;;16.37;100.00;99483.00;4916505;29;20034;-86
2023/11/10 15:14:12;;;;;;;0.20;0.20;;;;;;;16.37;100.00;99477.41;4899732;29;20028;-86
2023/11/10 15:16:45;;;;;;;0.20;0.20;;;;;;;16.23;100.00;99471.94;4916520;29;20116;-86
2023/11/10 15:19:11;;;;;;;0.20;0.20;;;;;;;16.24;100.00;99490.38;4899481;29;20020;-86
2023/11/10 15:21:37;;;;;;;0.20;0.20;;;;;;;16.25;100.00;99508.81;4914994;29;20028;-86
2023/11/10 15:24:06;;;;;;;0.20;0.20;;;;;;;16.13;100.00;99498.91;4899574;29;20500;-86
2023/11/10 15:26:32;;;;;;;0.20;0.20;;;;;;;15.91;100.00;99472.28;4899344;29;20392;-86
2023/11/10 15:28:57;;;;;;;0.20;0.20;;;;;;;15.89;100.00;99486.75;4899386;29;20036;-86
2023/11/10 15:31:29;;;;;;;0.20;0.20;;;;;;;15.93;100.00;99509.94;4899149;29;20056;-86
2023/11/10 15:33:54;;;;;;;0.20;0.20;;;;;;;15.87;99.26;99477.13;4899480;29;20047;-86
2023/11/10 15:36:20;;;;;;;0.20;0.20;;;;;;;15.84;100.00;99494.81;4915037;29;20207;-87
2023/11/10 15:38:45;;;;;;;0.20;0.20;;;;;;;15.89;100.00;99502.78;4916309;29;20492;-87
2023/11/10 15:41:10;;;;;;;0.20;0.20;;;;;;;15.94;100.00;99507.94;4915153;29;20508;-87
2023/11/10 15:43:41;;;;;;;0.20;0.20;;;;;;;16.02;100.00;99517.84;4915034;29;20032;-87
2023/11/10 15:46:06;;;;;;;0.20;0.20;;;;;;;15.96;100.00;99516.72;4899101;29;20024;-86
2023/11/10 15:48:31;;;;;;;0.20;0.20;;;;;;;15.84;100.00;99494.81;4898968;29;20039;-87
2023/11/10 15:50:57;;;;;;;0.20;0.20;;;;;;;15.81;100.00;99490.00;4899069;29;20067;-86
2023/11/10 15:53:22;;;;;;;0.20;0.20;;;;;;;15.80;100.00;99494.84;4914703;29;20055;-87
2023/11/10 15:55:48;;;;;;;0.20;0.20;;;;;;;15.65;100.00;99484.94;4914806;29;20127;-86
2023/11/10 15:58:13;;;;;;;0.20;0.20;;;;;;;15.58;100.00;99479.38;4899111;29;20115;-86
2023/11/10 16:00:40;;;;;;;0.20;0.20;;;;;;;15.65;100.00;99487.75;4914856;29;20031;-87
2023/11/10 16:03:05;;;;;;;0.20;0.20;;;;;;;15.67;100.00;99490.97;4914860;29;20036;-86
2023/11/10 16:05:31;;;;;;;0.20;0.20;;;;;;;15.71;100.00;99497.31;4898777;29;20082;-87
2023/11/10 16:08:15;;;;;;;0.20;0.20;;;;;;;15.71;100.00;99514.97;4899655;29;20028;-86
2023/11/10 16:10:40;;;;;;;;;;;;;;;15.76;100.00;99515.69;4903059;29;20036;-83
2023/11/10 16:13:13;;;;;;;0.20;0.20;;;;;;;15.42;100.00;99479.91;4915492;29;19922;-83
2023/11/10 16:19:02;;;;;;;0.20;0.20;;;;;;;15.11;99.52;99448.13;4931594;29;20059;-83
2023/11/10 16:31:45;;;;;;;0.20;0.20;;;;;;;15.41;98.17;99509.97;4909913;23;20576;-83
2023/11/10 16:34:15;;;;;;;0.20;0.20;;;;;;;15.23;98.91;99494.47;4867123;29;20397;-83
2023/11/10 16:43:47;;;;;;;0.20;0.20;;;;;;;15.34;100.00;99535.25;4862975;29;20122;-86
2023/11/10 16:46:13;;;;;;;0.20;0.20;;;;;;;15.10;100.00;99500.56;4843105;29;20473;-85
2023/11/10 16:48:38;;;;;;;0.20;0.20;;;;;;;15.16;100.00;99504.50;4860441;29;20029;-88
2023/11/10 16:51:04;;;;;;;0.20;0.20;;;;;;;15.26;100.00;99521.69;4842515;29;20029;-86
2023/11/10 16:53:30;;;;;;;0.20;0.20;;;;;;;15.25;100.00;99520.88;4844479;29;20112;-85
2023/11/10 16:55:56;;;;;;;0.20;0.20;;;;;;;15.25;100.00;99518.06;4843327;29;20060;-83
2023/11/10 16:58:37;;;;;;;0.20;0.20;;;;;;;15.22;100.00;99504.09;4828712;29;20034;-86
2023/11/10 17:01:05;;;;;;;0.20;0.20;;;;;;;15.34;100.00;99523.22;4856559;29;20490;-83
2023/11/10 17:10:32;;;;;;;0.20;0.20;;;;;;;15.46;100.00;99503.13;5346652;23;20064;-81
2023/11/10 17:45:39;;;;;;;0.20;0.20;;;;;;;15.44;97.94;99478.28;5012410;23;20056;-83
